Time;durP1;ratioP1;P1;durP2;ratioP2;P2;SDS_P1;SDS_P2;PMS_P1;PMS_P2;Temp;Humidity;BMP_temperature;BMP_pressure;BME280_temperature;BME280_humidity;BME280_pressure;Samples;Min_cycle;Max_cycle;Signal;HPM_P1;HPM_P2
2023/04/15 00:01:18;;;;;;;;;;;;;;;15.54;nan;100679.75;5009300;28;20299;-88
2023/04/15 00:03:43;;;;;;;;;;;;;;;15.53;nan;100681.66;5002245;28;19929;-88
2023/04/15 00:06:09;;;;;;;;;;;;;;;15.54;nan;100679.75;4993593;28;20003;-88
2023/04/15 00:08:34;;;;;;;;;;;;;;;15.55;nan;100679.47;4998596;28;19963;-88
2023/04/15 00:11:02;;;;;;;;;;;;;;;15.55;nan;100675.97;5005379;28;19917;-88
2023/04/15 00:13:27;;;;;;;;;;;;;;;15.56;nan;100675.69;5009147;28;19925;-88
2023/04/15 00:15:52;;;;;;;;;;;;;;;15.57;nan;100671.88;5010139;28;19917;-88
2023/04/15 00:18:18;;;;;;;;;;;;;;;15.57;nan;100666.47;5010658;28;19921;-87
2023/04/15 00:20:43;;;;;;;;;;;;;;;15.56;nan;100661.38;5009461;28;20000;-87
2023/04/15 00:23:08;;;;;;;;;;;;;;;15.55;nan;100659.75;5009365;28;19917;-88
2023/04/15 00:25:34;;;;;;;;;;;;;;;15.55;nan;100662.44;5008250;28;19918;-88
2023/04/15 00:27:59;;;;;;;;;;;;;;;15.53;nan;100661.94;4994444;28;19963;-88
2023/04/15 00:30:25;;;;;;;;;;;;;;;15.54;nan;100652.75;5005234;28;20299;-88
2023/04/15 00:32:51;;;;;;;;;;;;;;;15.50;nan;100652.50;5007650;28;19921;-88
2023/04/15 00:35:19;;;;;;;;;;;;;;;15.51;nan;100664.13;5008699;28;19917;-89
2023/04/15 00:37:45;;;;;;;;;;;;;;;15.52;nan;100660.31;5008554;28;19918;-88
2023/04/15 00:40:11;;;;;;;;;;;;;;;15.53;nan;100656.53;4985584;28;19987;-88
2023/04/15 00:42:37;;;;;;;;;;;;;;;15.53;nan;100653.84;5000804;28;19924;-89
2023/04/15 00:45:02;;;;;;;;;;;;;;;15.52;nan;100666.53;5002329;28;20001;-87
2023/04/15 00:47:28;;;;;;;;;;;;;;;15.54;nan;100658.16;5004692;28;19952;-88
2023/04/15 00:49:54;;;;;;;;;;;;;;;15.55;nan;100660.56;5005615;28;20395;-88
2023/04/15 00:52:19;;;;;;;;;;;;;;;15.55;nan;100662.44;5009563;28;19924;-87
2023/04/15 00:54:44;;;;;;;;;;;;;;;15.57;nan;100669.19;4998007;28;20283;-88
2023/04/15 00:57:10;;;;;;;;;;;;;;;15.60;nan;100659.72;5001666;28;20272;-88
2023/04/15 00:59:35;;;;;;;;;;;;;;;15.60;nan;100663.25;5009327;28;20338;-88
2023/04/15 01:02:01;;;;;;;;;;;;;;;15.60;nan;100657.84;5010947;28;19922;-87
2023/04/15 01:04:26;;;;;;;;;;;;;;;15.62;nan;100655.69;5010520;28;20290;-87
2023/04/15 01:06:52;;;;;;;;;;;;;;;15.64;nan;100655.41;5005271;28;19971;-87
2023/04/15 01:09:17;;;;;;;;;;;;;;;15.64;nan;100658.09;5005912;28;19917;-88
2023/04/15 01:11:43;;;;;;;;;;;;;;;15.65;nan;100659.72;5008792;28;19917;-88
2023/04/15 01:14:09;;;;;;;;;;;;;;;15.65;nan;100655.13;5008689;28;20392;-87
2023/04/15 01:16:35;;;;;;;;;;;;;;;15.68;nan;100659.13;5005991;28;19987;-88
2023/04/15 01:19:01;;;;;;;;;;;;;;;15.68;nan;100653.75;4992782;28;20336;-87
2023/04/15 01:21:26;;;;;;;;;;;;;;;15.69;nan;100652.66;5008891;28;19999;-88
2023/04/15 01:23:52;;;;;;;;;;;;;;;15.70;nan;100656.97;5007606;28;20284;-88
2023/04/15 01:26:17;;;;;;;;;;;;;;;15.72;nan;100657.47;5007175;28;20063;-89
2023/04/15 01:28:43;;;;;;;;;;;;;;;15.73;nan;100656.38;5008883;28;20008;-88
2023/04/15 01:31:11;;;;;;;;;;;;;;;15.74;nan;100657.19;5008982;28;20018;-88
2023/04/15 01:33:37;;;;;;;;;;;;;;;15.74;nan;100652.59;5008591;28;20315;-88
2023/04/15 01:36:02;;;;;;;;;;;;;;;15.75;nan;100648.81;5007819;28;19922;-88
2023/04/15 01:38:28;;;;;;;;;;;;;;;15.76;nan;100655.00;5012772;28;19921;-88
2023/04/15 01:40:54;;;;;;;;;;;;;;;15.76;nan;100658.50;5008744;28;19918;-87
2023/04/15 01:43:19;;;;;;;;;;;;;;;15.75;nan;100654.19;5007062;28;19918;-87
2023/04/15 01:45:44;;;;;;;;;;;;;;;15.74;nan;100647.19;5006614;28;19918;-87
2023/04/15 01:48:10;;;;;;;;;;;;;;;15.74;nan;100652.59;4990654;28;20372;-87
2023/04/15 01:50:36;;;;;;;;;;;;;;;15.76;nan;100653.09;5010823;28;20256;-87
2023/04/15 01:53:02;;;;;;;;;;;;;;;15.75;nan;100656.91;5006728;28;19988;-88
2023/04/15 01:55:27;;;;;;;;;;;;;;;15.75;nan;100656.09;5001770;28;20439;-87
2023/04/15 01:57:53;;;;;;;;;;;;;;;15.74;nan;100647.19;5004093;28;19990;-89
2023/04/15 02:00:18;;;;;;;;;;;;;;;15.75;nan;100642.59;5003609;28;19932;-87
2023/04/15 02:02:43;;;;;;;;;;;;;;;15.77;nan;100643.09;5006099;28;20274;-87
2023/04/15 02:05:09;;;;;;;;;;;;;;;15.77;nan;100646.63;5010124;28;19975;-88
2023/04/15 02:07:36;;;;;;;;;;;;;;;15.77;nan;100646.63;5006284;28;19920;-88
2023/04/15 02:10:01;;;;;;;;;;;;;;;15.79;nan;100641.72;5004452;28;20396;-88
2023/04/15 02:12:28;;;;;;;;;;;;;;;15.81;nan;100644.16;5002742;28;19917;-89
2023/04/15 02:14:54;;;;;;;;;;;;;;;15.83;nan;100640.09;5020499;28;20069;-89
2023/04/15 02:17:20;;;;;;;;;;;;;;;15.80;nan;100642.53;5007944;28;19925;-90
2023/04/15 02:19:45;;;;;;;;;;;;;;;15.78;nan;100642.81;4998938;28;19918;-88
2023/04/15 02:22:17;;;;;;;;;;;;;;;15.79;nan;100649.03;4990887;28;19918;-88
2023/04/15 02:24:42;;;;;;;;;;;;;;;15.78;nan;100653.63;5001649;28;19917;-88
2023/04/15 02:27:07;;;;;;;;;;;;;;;15.81;nan;100647.69;4997704;28;19918;-87
2023/04/15 02:29:33;;;;;;;;;;;;;;;15.79;nan;100651.72;5008532;28;19913;-88
2023/04/15 02:31:58;;;;;;;;;;;;;;;15.78;nan;100658.22;5009889;28;19925;-88
2023/04/15 02:34:25;;;;;;;;;;;;;;;15.77;nan;100654.72;5010833;28;19960;-88
2023/04/15 02:36:54;;;;;;;;;;;;;;;15.75;nan;100654.19;4993668;28;20319;-89
2023/04/15 02:39:20;;;;;;;;;;;;;;;15.76;nan;100646.91;5006092;28;20320;-91
2023/04/15 02:41:50;;;;;;;;;;;;;;;15.78;nan;100652.81;5011427;22;20019;-87
2023/04/15 02:44:17;;;;;;;;;;;;;;;15.76;nan;100658.50;4991954;28;19948;-87
2023/04/15 02:46:43;;;;;;;;;;;;;;;15.77;nan;100656.63;4991814;28;20020;-86
2023/04/15 02:49:09;;;;;;;;;;;;;;;15.76;nan;100663.09;4996824;28;20048;-86
2023/04/15 02:51:35;;;;;;;;;;;;;;;15.73;nan;100660.97;4992143;28;19928;-86
2023/04/15 02:54:00;;;;;;;;;;;;;;;15.73;nan;100671.78;4997355;28;19932;-87
2023/04/15 02:56:26;;;;;;;;;;;;;;;15.71;nan;100664.78;4998158;28;19928;-88
2023/04/15 02:58:54;;;;;;;;;;;;;;;15.71;nan;100664.78;5000081;28;19922;-87
2023/04/15 03:01:20;;;;;;;;;;;;;;;15.75;nan;100670.41;4998561;28;19922;-87
2023/04/15 03:03:46;;;;;;;;;;;;;;;15.77;nan;100668.22;5000589;28;19921;-88
2023/04/15 03:06:11;;;;;;;;;;;;;;;15.78;nan;100664.44;4995797;28;19980;-86
2023/04/15 03:08:37;;;;;;;;;;;;;;;15.80;nan;100664.16;4997560;28;20406;-87
2023/04/15 03:11:02;;;;;;;;;;;;;;;15.79;nan;100666.03;4999187;28;20368;-88
2023/04/15 03:13:28;;;;;;;;;;;;;;;15.79;nan;100670.63;4998581;28;19933;-87
2023/04/15 03:15:53;;;;;;;;;;;;;;;15.78;nan;100666.31;4998253;28;20276;-88
2023/04/15 03:18:18;;;;;;;;;;;;;;;15.76;nan;100676.63;4997696;28;19918;-86
2023/04/15 03:20:44;;;;;;;;;;;;;;;15.75;nan;100675.81;4997654;28;19948;-88
2023/04/15 03:23:09;;;;;;;;;;;;;;;15.77;nan;100675.53;4998329;28;19952;-86
2023/04/15 03:25:36;;;;;;;;;;;;;;;15.77;nan;100676.31;4998683;28;19921;-86
2023/04/15 03:28:01;;;;;;;;;;;;;;;15.76;nan;100677.41;4998804;28;20477;-88
2023/04/15 03:30:27;;;;;;;;;;;;;;;15.74;nan;100681.50;4997703;28;20037;-86
2023/04/15 03:32:53;;;;;;;;;;;;;;;15.69;nan;100683.16;4998224;28;19941;-87
2023/04/15 03:35:18;;;;;;;;;;;;;;;15.70;nan;100679.38;4995436;28;20015;-88
2023/04/15 03:37:43;;;;;;;;;;;;;;;15.71;nan;100686.38;4997826;28;19976;-87
2023/04/15 03:40:21;;;;;;;;;;;;;;;15.68;nan;100686.16;4997710;28;19949;-86
2023/04/15 03:42:48;;;;;;;;;;;;;;;15.66;nan;100685.63;4998093;28;19918;-87
2023/04/15 03:45:13;;;;;;;;;;;;;;;15.66;nan;100689.13;4996258;28;20214;-87
2023/04/15 03:47:38;;;;;;;;;;;;;;;15.65;nan;100687.53;5000995;28;19971;-87
2023/04/15 03:50:04;;;;;;;;;;;;;;;15.64;nan;100680.50;4999867;28;19924;-86
2023/04/15 03:52:29;;;;;;;;;;;;;;;15.62;nan;100687.28;5000189;28;19922;-87
2023/04/15 03:54:55;;;;;;;;;;;;;;;15.63;nan;100691.59;5000309;28;19940;-86
2023/04/15 03:57:20;;;;;;;;;;;;;;;15.62;nan;100690.78;4997362;28;19936;-89
2023/04/15 03:59:45;;;;;;;;;;;;;;;15.59;nan;100690.53;4997730;28;19949;-88
2023/04/15 04:02:11;;;;;;;;;;;;;;;15.55;nan;100684.88;4993820;28;19964;-87
2023/04/15 04:04:36;;;;;;;;;;;;;;;15.55;nan;100690.25;4995435;28;19918;-86
2023/04/15 04:07:01;;;;;;;;;;;;;;;15.50;nan;100689.50;4998497;28;19921;-87
2023/04/15 04:09:27;;;;;;;;;;;;;;;15.49;nan;100688.69;4997899;28;19925;-87
2023/04/15 04:11:53;;;;;;;;;;;;;;;15.50;nan;100692.22;5002124;28;19925;-88
2023/04/15 04:14:18;;;;;;;;;;;;;;;15.51;nan;100693.81;5001124;28;19924;-88
2023/04/15 04:16:44;;;;;;;;;;;;;;;15.53;nan;100699.75;4996811;28;20031;-86
2023/04/15 04:19:10;;;;;;;;;;;;;;;15.52;nan;100698.94;4997965;28;19917;-87
2023/04/15 04:21:35;;;;;;;;;;;;;;;15.52;nan;100703.53;5000991;28;20346;-87
2023/04/15 04:24:01;;;;;;;;;;;;;;;15.53;nan;100705.94;4998529;28;19932;-86
2023/04/15 04:26:26;;;;;;;;;;;;;;;15.54;nan;100712.16;5012935;28;20442;-86
2023/04/15 04:28:52;;;;;;;;;;;;;;;15.53;nan;100715.94;4998267;28;20017;-86
2023/04/15 04:31:17;;;;;;;;;;;;;;;15.53;nan;100710.53;4998257;28;19921;-86
2023/04/15 04:33:42;;;;;;;;;;;;;;;15.55;nan;100714.56;5001650;28;19933;-88
2023/04/15 04:36:08;;;;;;;;;;;;;;;15.58;nan;100724.81;4997707;28;19956;-87
2023/04/15 04:38:33;;;;;;;;;;;;;;;15.60;nan;100716.44;4993801;28;19917;-86
2023/04/15 04:40:59;;;;;;;;;;;;;;;15.59;nan;100721.03;4999382;28;19940;-88
2023/04/15 04:43:24;;;;;;;;;;;;;;;15.60;nan;100719.16;4997028;28;19921;-86
2023/04/15 04:45:50;;;;;;;;;;;;;;;15.62;nan;100714.28;5002382;28;20061;-86
2023/04/15 04:48:16;;;;;;;;;;;;;;;15.63;nan;100718.59;4998198;28;19922;-86
2023/04/15 04:50:41;;;;;;;;;;;;;;;15.66;nan;100718.84;4996807;28;19929;-86
2023/04/15 04:53:07;;;;;;;;;;;;;;;15.68;nan;100710.47;4998470;28;19984;-86
2023/04/15 04:55:35;;;;;;;;;;;;;;;15.69;nan;100717.47;4995483;28;19921;-86
2023/04/15 04:58:01;;;;;;;;;;;;;;;15.67;nan;100715.06;4997612;28;19925;-86
2023/04/15 05:00:26;;;;;;;;;;;;;;;15.67;nan;100720.47;4994902;28;19978;-87
2023/04/15 05:02:51;;;;;;;;;;;;;;;15.70;nan;100717.19;4996651;28;20035;-87
2023/04/15 05:05:17;;;;;;;;;;;;;;;15.74;nan;100719.31;5000446;28;19921;-86
2023/04/15 05:07:42;;;;;;;;;;;;;;;15.79;nan;100725.47;4995511;28;20360;-87
2023/04/15 05:10:08;;;;;;;;;;;;;;;15.79;nan;100720.06;4994723;28;19924;-87
2023/04/15 05:12:34;;;;;;;;;;;;;;;15.80;nan;100721.72;4996013;28;19918;-85
2023/04/15 05:14:59;;;;;;;;;;;;;;;15.83;nan;100729.25;5003015;28;19942;-87
2023/04/15 05:17:27;;;;;;;;;;;;;;;15.86;nan;100731.38;4999481;28;20310;-87
2023/04/15 05:19:52;;;;;;;;;;;;;;;15.89;nan;100728.09;4995891;28;20415;-86
2023/04/15 05:22:18;;;;;;;;;;;;;;;15.93;nan;100731.03;4999076;28;20016;-87
2023/04/15 05:24:43;;;;;;;;;;;;;;;15.95;nan;100728.84;5000060;28;20256;-86
2023/04/15 05:27:10;;;;;;;;;;;;;;;15.95;nan;100729.66;5002949;28;20418;-88
2023/04/15 05:29:35;;;;;;;;;;;;;;;15.95;nan;100739.66;5003116;28;20016;-88
2023/04/15 05:32:01;;;;;;;;;;;;;;;15.98;nan;100739.94;4996888;28;20033;-86
2023/04/15 05:34:26;;;;;;;;;;;;;;;15.99;nan;100738.84;5000131;28;19917;-88
2023/04/15 05:36:52;;;;;;;;;;;;;;;16.05;nan;100741.47;5004545;28;19925;-87
2023/04/15 05:39:17;;;;;;;;;;;;;;;16.07;nan;100742.00;4997663;28;19925;-87
2023/04/15 05:41:43;;;;;;;;;;;;;;;16.06;nan;100741.19;4998100;28;20441;-87
2023/04/15 05:44:08;;;;;;;;;;;;;;;16.05;nan;100742.28;5000652;28;19917;-87
2023/04/15 05:46:33;;;;;;;;;;;;;;;16.06;nan;100734.97;5005184;28;20044;-87
2023/04/15 05:48:59;;;;;;;;;;;;;;;16.07;nan;100737.41;4997417;28;20279;-87
2023/04/15 05:51:25;;;;;;;;;;;;;;;16.07;nan;100748.22;5000237;28;20004;-87
2023/04/15 05:53:50;;;;;;;;;;;;;;;16.08;nan;100744.41;4997152;28;19942;-86
2023/04/15 05:56:16;;;;;;;;;;;;;;;16.11;nan;100745.75;4995901;28;19921;-88
2023/04/15 05:58:41;;;;;;;;;;;;;;;16.14;nan;100748.66;5000659;28;19976;-87
2023/04/15 06:01:07;;;;;;;;;;;;;;;16.18;nan;100748.94;4999005;28;20000;-88
2023/04/15 06:03:33;;;;;;;;;;;;;;;16.20;nan;100747.56;4998720;28;20004;-87
2023/04/15 06:05:59;;;;;;;;;;;;;;;16.28;nan;100756.94;5001743;28;19918;-88
2023/04/15 06:08:25;;;;;;;;;;;;;;;16.30;nan;100752.03;4995263;28;19917;-87
2023/04/15 06:10:50;;;;;;;;;;;;;;;16.30;nan;100752.84;5005607;28;19980;-88
2023/04/15 06:13:16;;;;;;;;;;;;;;;16.31;nan;100745.53;4998220;28;19918;-88
2023/04/15 06:15:41;;;;;;;;;;;;;;;16.34;nan;100755.81;5002103;28;20012;-89
2023/04/15 06:18:07;;;;;;;;;;;;;;;16.38;nan;100753.31;4998082;28;19929;-87
2023/04/15 06:20:32;;;;;;;;;;;;;;;16.41;nan;100761.66;5000616;28;20088;-86
2023/04/15 06:22:58;;;;;;;;;;;;;;;16.40;nan;100760.06;5001723;28;20012;-88
2023/04/15 06:25:23;;;;;;;;;;;;;;;16.41;nan;100767.06;4998843;28;19928;-86
2023/04/15 06:27:49;;;;;;;;;;;;;;;16.42;nan;100757.06;4999834;28;19917;-88
2023/04/15 06:30:14;;;;;;;;;;;;;;;16.44;nan;100763.78;4999368;28;19961;-88
2023/04/15 06:32:40;;;;;;;;;;;;;;;16.46;nan;100767.00;5003134;28;20021;-88
2023/04/15 06:35:07;;;;;;;;;;;;;;;16.52;nan;100765.09;5004676;28;19967;-87
2023/04/15 06:37:33;;;;;;;;;;;;;;;16.58;nan;100764.72;4999805;28;19933;-86
2023/04/15 06:39:58;;;;;;;;;;;;;;;16.57;nan;100773.94;5005027;28;19922;-86
2023/04/15 06:42:26;;;;;;;;;;;;;;;16.59;nan;100773.66;5008207;28;20007;-88
2023/04/15 06:44:52;;;;;;;;;;;;;;;16.64;nan;100762.75;5003280;28;20445;-87
2023/04/15 06:47:18;;;;;;;;;;;;;;;16.70;nan;100772.47;4997884;28;19925;-87
2023/04/15 06:49:43;;;;;;;;;;;;;;;16.75;nan;100775.13;5004980;28;20276;-87
2023/04/15 06:52:09;;;;;;;;;;;;;;;16.77;nan;100775.63;4998994;28;19925;-87
2023/04/15 06:54:35;;;;;;;;;;;;;;;16.79;nan;100775.34;5003403;28;20390;-86
2023/04/15 06:57:00;;;;;;;;;;;;;;;16.80;nan;100785.06;5006393;28;19948;-87
2023/04/15 06:59:26;;;;;;;;;;;;;;;16.83;nan;100787.19;5000356;28;19994;-86
2023/04/15 07:02:04;;;;;;;;;;;;;;;16.85;nan;100777.69;5001446;28;19979;-88
2023/04/15 07:04:29;;;;;;;;;;;;;;;16.90;nan;100790.38;5002799;28;19944;-87
2023/04/15 07:06:55;;;;;;;;;;;;;;;16.97;nan;100787.31;5001034;28;20399;-88
2023/04/15 07:09:24;;;;;;;;;;;;;;;17.01;nan;100793.75;5003451;28;20286;-87
2023/04/15 07:11:50;;;;;;;;;;;;;;;17.06;nan;100791.81;4999608;28;19930;-87
2023/04/15 07:14:16;;;;;;;;;;;;;;;17.10;nan;100786.59;5003758;28;19929;-87
2023/04/15 07:16:41;;;;;;;;;;;;;;;17.16;nan;100791.66;5007092;28;19932;-87
2023/04/15 07:19:06;;;;;;;;;;;;;;;17.22;nan;100790.47;4999389;28;19931;-87
2023/04/15 07:21:32;;;;;;;;;;;;;;;17.23;nan;100788.59;4999606;28;19922;-87
2023/04/15 07:24:00;;;;;;;;;;;;;;;17.26;nan;100789.94;5006431;28;19940;-86
2023/04/15 07:26:25;;;;;;;;;;;;;;;17.30;nan;100794.47;5002443;28;19917;-87
2023/04/15 07:28:51;;;;;;;;;;;;;;;17.31;nan;100797.97;5002115;28;19932;-87
2023/04/15 07:31:16;;;;;;;;;;;;;;;17.30;nan;100794.47;5002268;28;19921;-87
2023/04/15 07:33:41;;;;;;;;;;;;;;;17.36;nan;100795.19;5005826;28;19924;-86
2023/04/15 07:36:07;;;;;;;;;;;;;;;17.37;nan;100792.19;5006693;28;20008;-86
2023/04/15 07:38:32;;;;;;;;;;;;;;;17.42;nan;100796.75;5006009;28;20555;-86
2023/04/15 07:40:58;;;;;;;;;;;;;;;17.43;nan;100801.88;5003704;28;19917;-88
2023/04/15 07:43:24;;;;;;;;;;;;;;;17.47;nan;100810.22;5003281;28;19949;-86
2023/04/15 07:45:49;;;;;;;;;;;;;;;17.47;nan;100802.88;5005094;28;19956;-87
2023/04/15 07:48:15;;;;;;;;;;;;;;;17.51;nan;100808.53;5005221;28;19928;-87
2023/04/15 07:50:41;;;;;;;;;;;;;;;17.50;nan;100804.19;5006598;28;20223;-86
2023/04/15 07:53:06;;;;;;;;;;;;;;;17.54;nan;100805.22;5001077;28;19994;-86
2023/04/15 07:55:31;;;;;;;;;;;;;;;17.58;nan;100808.94;5009055;28;19917;-88
2023/04/15 07:57:57;;;;;;;;;;;;;;;17.62;nan;100810.00;5007972;28;20697;-87
2023/04/15 08:00:22;;;;;;;;;;;;;;;17.62;nan;100814.63;5004425;28;19918;-86
2023/04/15 08:02:48;;;;;;;;;;;;;;;17.65;nan;100808.59;5004663;28;19947;-86
2023/04/15 08:05:13;;;;;;;;;;;;;;;17.72;nan;100809.06;5013959;28;19929;-88
2023/04/15 08:07:39;;;;;;;;;;;;;;;17.72;nan;100807.16;5000779;28;19924;-86
2023/04/15 08:10:05;;;;;;;;;;;;;;;17.74;nan;100807.66;5006395;28;19975;-87
2023/04/15 08:12:30;;;;;;;;;;;;;;;17.76;nan;100816.28;5004146;28;20339;-88
2023/04/15 08:14:56;;;;;;;;;;;;;;;17.72;nan;100820.69;4997652;28;19941;-86
2023/04/15 08:17:21;;;;;;;;;;;;;;;17.76;nan;100810.88;4995652;28;20445;-86
2023/04/15 08:19:47;;;;;;;;;;;;;;;17.76;nan;100818.19;4997904;28;19917;-89
2023/04/15 08:22:13;;;;;;;;;;;;;;;17.83;nan;100815.13;4997549;28;19964;-87
2023/04/15 08:24:39;;;;;;;;;;;;;;;17.87;nan;100822.38;5002101;28;20301;-87
2023/04/15 08:27:05;;;;;;;;;;;;;;;17.98;nan;100823.03;5005082;28;19918;-85
2023/04/15 08:29:33;;;;;;;;;;;;;;;17.97;nan;100821.44;5004316;28;19932;-86
2023/04/15 08:32:02;;;;;;;;;;;;;;;17.94;nan;100820.09;5004351;28;19957;-88
2023/04/15 08:34:28;;;;;;;;;;;;;;;17.97;nan;100824.13;5001444;28;19943;-88
2023/04/15 08:36:53;;;;;;;;;;;;;;;18.00;nan;100826.25;5004018;28;20334;-86
2023/04/15 08:39:19;;;;;;;;;;;;;;;18.00;nan;100827.06;4997253;28;19979;-87
2023/04/15 08:41:48;;;;;;;;;;;;;;;18.04;nan;100827.25;5008023;28;19934;-86
2023/04/15 08:44:13;;;;;;;;;;;;;;;18.08;nan;100834.50;5006964;28;19948;-86
2023/04/15 08:46:41;;;;;;;;;;;;;;;18.12;nan;100829.28;5008038;28;19924;-86
2023/04/15 08:49:17;;;;;;;;;;;;;;;18.14;nan;100820.88;5011202;28;20760;-87
2023/04/15 08:51:44;;;;;;;;;;;;;;;18.21;nan;100843.00;5008380;28;19917;-86
2023/04/15 08:54:09;;;;;;;;;;;;;;;18.20;nan;100834.06;5008988;28;20454;-86
2023/04/15 08:56:35;;;;;;;;;;;;;;;18.22;nan;100837.28;5007424;28;19926;-86
2023/04/15 08:59:01;;;;;;;;;;;;;;;18.28;nan;100841.50;5012331;28;19928;-86
2023/04/15 09:01:26;;;;;;;;;;;;;;;18.33;nan;100852.28;5013497;28;20386;-86
2023/04/15 09:03:58;;;;;;;;;;;;;;;18.39;nan;100840.22;5009362;28;19925;-87
2023/04/15 09:06:24;;;;;;;;;;;;;;;18.38;nan;100844.06;5014062;28;19921;-87
2023/04/15 09:08:50;;;;;;;;;;;;;;;18.37;nan;100853.28;5010921;28;19918;-88
2023/04/15 09:11:16;;;;;;;;;;;;;;;18.38;nan;100845.97;5006261;28;19929;-88
2023/04/15 09:13:44;;;;;;;;;;;;;;;18.35;nan;100852.78;5019069;28;19918;-87
2023/04/15 09:16:10;;;;;;;;;;;;;;;18.33;nan;100848.75;5010097;28;19918;-89
2023/04/15 09:18:37;;;;;;;;;;;;;;;18.36;nan;100853.59;5006532;28;19917;-89
2023/04/15 09:21:07;;;;;;;;;;;;;;;18.33;nan;100860.41;5002285;28;20004;-88
2023/04/15 09:23:33;;;;;;;;;;;;;;;18.35;nan;100865.53;5008003;28;19953;-87
2023/04/15 09:26:01;;;;;;;;;;;;;;;18.33;nan;100863.13;5008530;28;19960;-88
2023/04/15 09:28:27;;;;;;;;;;;;;;;18.38;nan;100860.31;5005225;28;19925;-88
2023/04/15 09:30:59;;;;;;;;;;;;;;;18.40;nan;100860.03;5004051;28;19917;-87
2023/04/15 09:33:26;;;;;;;;;;;;;;;18.45;nan;100867.25;5004628;28;19964;-87
2023/04/15 09:36:02;;;;;;;;;;;;;;;18.47;nan;100874.00;5005642;28;19993;-89
2023/04/15 09:38:28;;;;;;;;;;;;;;;18.48;nan;100874.81;5008547;28;20346;-89
2023/04/15 09:40:54;;;;;;;;;;;;;;;18.47;nan;100874.00;5007593;28;19925;-87
2023/04/15 09:43:19;;;;;;;;;;;;;;;18.50;nan;100876.13;5002846;28;20004;-87
2023/04/15 09:45:49;;;;;;;;;;;;;;;18.51;nan;100885.09;5001042;28;19926;-87
2023/04/15 09:48:20;;;;;;;;;;;;;;;18.46;nan;100872.38;5009315;28;19943;-87
2023/04/15 09:50:47;;;;;;;;;;;;;;;18.48;nan;100888.38;5011610;28;19918;-88
2023/04/15 09:53:17;;;;;;;;;;;;;;;18.48;nan;100888.38;5004810;28;20308;-87
2023/04/15 09:55:46;;;;;;;;;;;;;;;18.48;nan;100885.66;5001676;28;19917;-88
2023/04/15 09:58:18;;;;;;;;;;;;;;;18.52;nan;100887.50;5004590;28;20017;-87
2023/04/15 10:00:46;;;;;;;;;;;;;;;18.53;nan;100891.03;5001138;28;20188;-87
2023/04/15 10:03:12;;;;;;;;;;;;;;;18.47;nan;100892.19;5003043;28;20361;-87
2023/04/15 10:05:38;;;;;;;;;;;;;;;18.46;nan;100893.28;5002801;28;20389;-88
2023/04/15 10:08:06;;;;;;;;;;;;;;;18.41;nan;100892.28;4999818;28;19963;-88
2023/04/15 10:10:33;;;;;;;;;;;;;;;18.38;nan;100892.06;4998215;28;20004;-87
2023/04/15 10:13:01;;;;;;;;;;;;;;;18.34;nan;100897.28;5003273;28;20285;-87
2023/04/15 10:15:27;;;;;;;;;;;;;;;18.28;nan;100903.88;5000145;28;19994;-87
2023/04/15 10:17:54;;;;;;;;;;;;;;;18.25;nan;100893.63;5007244;28;19960;-86
2023/04/15 10:20:21;;;;;;;;;;;;;;;18.27;nan;100904.19;5008947;28;19929;-87
2023/04/15 10:22:47;;;;;;;;;;;;;;;18.28;nan;100909.31;5014233;28;19925;-87
2023/04/15 10:25:14;;;;;;;;;;;;;;;18.28;nan;100903.88;5012986;28;19921;-87
2023/04/15 10:27:47;;;;;;;;;;;;;;;18.30;nan;100901.66;5009729;28;20355;-87
2023/04/15 10:30:12;;;;;;;;;;;;;;;18.29;nan;100900.06;5006863;28;19921;-87
2023/04/15 10:32:38;;;;;;;;;;;;;;;18.31;nan;100902.47;4999516;28;19918;-87
2023/04/15 10:35:04;;;;;;;;;;;;;;;18.32;nan;100896.78;5005770;28;19921;-87
2023/04/15 10:37:36;;;;;;;;;;;;;;;18.32;nan;100904.91;5010131;28;20338;-87
2023/04/15 10:40:20;;;;;;;;;;;;;;;18.36;nan;100907.84;4999642;28;20912;-87
2023/04/15 10:42:46;;;;;;;;;;;;;;;18.36;nan;100908.66;5007577;28;20456;-86
2023/04/15 10:45:15;;;;;;;;;;;;;;;18.37;nan;100912.97;5014973;28;19929;-86
2023/04/15 10:47:42;;;;;;;;;;;;;;;18.39;nan;100916.19;5017544;28;20185;-87
2023/04/15 10:50:08;;;;;;;;;;;;;;;18.38;nan;100914.56;5019868;28;20302;-86
2023/04/15 10:52:33;;;;;;;;;;;;;;;18.38;nan;100911.06;5009201;28;19914;-86
2023/04/15 10:55:17;;;;;;;;;;;;;;;18.39;nan;100916.19;5013621;28;19921;-88
2023/04/15 10:57:43;;;;;;;;;;;;;;;18.39;nan;100921.63;4998410;28;19944;-89
2023/04/15 11:00:12;;;;;;;;;;;;;;;18.37;nan;100915.69;4992188;28;20411;-87
2023/04/15 11:02:38;;;;;;;;;;;;;;;18.35;nan;100912.47;4993872;28;19922;-88
2023/04/15 11:05:04;;;;;;;;;;;;;;;18.35;nan;100912.47;4993820;28;19948;-88
2023/04/15 11:07:33;;;;;;;;;;;;;;;18.34;nan;100919.00;4995297;28;20326;-87
2023/04/15 11:10:00;;;;;;;;;;;;;;;18.37;nan;100923.81;4988785;28;19941;-89
2023/04/15 11:12:37;;;;;;;;;;;;;;;18.37;nan;100934.66;4992588;28;19933;-89
2023/04/15 11:15:21;;;;;;;;;;;;;;;18.36;nan;100921.41;5006481;28;20093;-88
2023/04/15 11:17:46;;;;;;;;;;;;;;;18.34;nan;100929.84;5001738;28;20255;-88
2023/04/15 11:20:16;;;;;;;;;;;;;;;18.37;nan;100923.81;5004663;28;19921;-88
2023/04/15 11:22:49;;;;;;;;;;;;;;;18.37;nan;100937.38;5002708;28;19914;-89
2023/04/15 11:25:27;;;;;;;;;;;;;;;18.33;nan;100933.66;4999817;28;19922;-88
2023/04/15 11:27:53;;;;;;;;;;;;;;;18.32;nan;100942.91;5003933;28;19922;-88
2023/04/15 11:30:22;;;;;;;;;;;;;;;18.29;nan;100942.66;4998926;28;20576;-88
2023/04/15 11:32:48;;;;;;;;;;;;;;;18.26;nan;100946.75;5002871;28;19918;-88
2023/04/15 11:35:17;;;;;;;;;;;;;;;18.23;nan;100943.84;4997207;28;19932;-87
2023/04/15 11:37:43;;;;;;;;;;;;;;;18.24;nan;100942.75;5005582;28;20207;-89
2023/04/15 11:40:09;;;;;;;;;;;;;;;18.26;nan;100949.47;5000552;28;20349;-88
2023/04/15 11:42:35;;;;;;;;;;;;;;;18.32;nan;100948.31;4996572;28;19921;-88
2023/04/15 11:45:08;;;;;;;;;;;;;;;18.35;nan;100949.63;5002388;28;20401;-88
2023/04/15 11:47:35;;;;;;;;;;;;;;;18.34;nan;100956.97;4999530;28;20036;-88
2023/04/15 11:50:36;;;;;;;;;;;;;;;18.37;nan;100956.38;5000516;28;19922;-88
2023/04/15 11:53:05;;;;;;;;;;;;;;;18.39;nan;100954.16;4945258;28;19932;-88
2023/04/15 11:55:40;;;;;;;;;;;;;;;18.42;nan;100969.03;4993264;28;19921;-88
2023/04/15 11:58:10;;;;;;;;;;;;;;;18.42;nan;100969.03;5002118;28;19926;-88
2023/04/15 12:00:36;;;;;;;;;;;;;;;18.46;nan;100966.53;5004567;28;19921;-87
2023/04/15 12:03:31;;;;;;;;;;;;;;;18.46;nan;100969.25;5002000;28;19928;-88
2023/04/15 12:06:07;;;;;;;;;;;;;;;18.46;nan;100969.25;4991560;28;20421;-89
2023/04/15 12:08:52;;;;;;;;;;;;;;;18.49;nan;100971.38;4998577;28;19917;-88
2023/04/15 12:11:20;;;;;;;;;;;;;;;18.48;nan;100969.75;4993838;28;20012;-88
2023/04/15 12:13:49;;;;;;;;;;;;;;;18.50;nan;100973.00;5002301;28;20052;-88
2023/04/15 12:16:24;;;;;;;;;;;;;;;18.52;nan;100973.53;4999592;28;20284;-88
2023/04/15 12:18:54;;;;;;;;;;;;;;;18.55;nan;100972.91;4994336;28;20279;-88
2023/04/15 12:21:24;;;;;;;;;;;;;;;18.55;nan;100975.63;4999467;28;19921;-87
2023/04/15 12:23:53;;;;;;;;;;;;;;;18.55;nan;100973.72;5004489;28;20337;-87
2023/04/15 12:26:32;;;;;;;;;;;;;;;18.52;nan;100970.81;4999193;28;21284;-87
2023/04/15 12:29:01;;;;;;;;;;;;;;;18.50;nan;100973.81;5003027;28;20299;-88
2023/04/15 12:31:26;;;;;;;;;;;;;;;18.48;nan;100977.91;4995030;28;19918;-88
2023/04/15 12:33:54;;;;;;;;;;;;;;;18.47;nan;100979.81;4999360;28;20249;-87
2023/04/15 12:36:19;;;;;;;;;;;;;;;18.48;nan;100975.19;4993237;28;19971;-87
2023/04/15 12:38:45;;;;;;;;;;;;;;;18.53;nan;100988.69;5002815;28;19921;-88
2023/04/15 12:41:10;;;;;;;;;;;;;;;18.56;nan;100988.91;5002574;28;19976;-87
2023/04/15 12:43:36;;;;;;;;;;;;;;;18.59;nan;100988.31;4996686;28;20005;-87
2023/04/15 12:46:01;;;;;;;;;;;;;;;18.62;nan;100992.34;5003604;28;20045;-87
2023/04/15 12:48:27;;;;;;;;;;;;;;;18.63;nan;100993.97;5003364;28;20383;-87
2023/04/15 12:50:52;;;;;;;;;;;;;;;18.69;nan;101000.97;4994225;28;19933;-87
2023/04/15 12:53:18;;;;;;;;;;;;;;;18.71;nan;101001.47;4992984;28;19953;-87
2023/04/15 12:55:43;;;;;;;;;;;;;;;18.69;nan;101003.66;4999823;28;20020;-89